Nelson, Wisconsin
Current Conditions -  °F | °C
As of 8:11 AM on Thursday 27 Nov 2014 (Local Time) from KRGK Reporting Station
NA  
Wind Chill:   Ceiling: NA
Heat Index:   Visibility: 10mi
Dew Point: -6°   Wind: 0mph
Humidity: 72%   Direction: NA
Pressure: 30.49"   Gusts: NA
Location:  44.42°N, 92.01°W
Report Text: KRGK 271411Z AUTO 00000KT 10SM M17/M21 A3049 RMK AO2
Loading
Personal Weather Stations






























Interactive Weather Map New forecast layout! Learn more

10-Day Weather Forecast

Advertisements
Track Severe Weather on mobile